Time;durP1;ratioP1;P1;durP2;ratioP2;P2;SDS_P1;SDS_P2;PMS_P1;PMS_P2;Temp;Humidity;BMP_temperature;BMP_pressure;BME280_temperature;BME280_humidity;BME280_pressure;Samples;Min_cycle;Max_cycle;Signal;HPM_P1;HPM_P2
2023/09/12 00:01:32;;;;;;;1999.90;999.90;;;;;;;19.08;100.00;94707.59;5007564;28;20187;-65
2023/09/12 00:03:58;;;;;;;1999.90;999.90;;;;;;;19.06;100.00;94714.84;5007636;28;20196;-66
2023/09/12 00:06:23;;;;;;;1999.90;999.90;;;;;;;19.05;100.00;94713.31;5007835;28;20207;-66
2023/09/12 00:08:48;;;;;;;1999.90;999.90;;;;;;;19.01;100.00;94713.50;5007306;28;20250;-65
2023/09/12 00:11:14;;;;;;;1999.90;999.90;;;;;;;19.01;100.00;94713.50;5007702;28;20195;-65
2023/09/12 00:13:41;;;;;;;1999.90;999.90;;;;;;;19.00;100.00;94713.97;5007603;28;20211;-64
2023/09/12 00:16:09;;;;;;;1999.90;999.90;;;;;;;18.92;100.00;94721.88;5007561;28;20226;-64
2023/09/12 00:18:35;;;;;;;1999.90;999.90;;;;;;;18.93;100.00;94722.63;5007290;28;20219;-65
2023/09/12 00:21:01;;;;;;;1999.90;999.90;;;;;;;18.92;100.00;94710.03;5007025;28;20209;-65
2023/09/12 00:23:26;;;;;;;1999.90;999.90;;;;;;;18.89;100.00;94697.91;5007257;28;20242;-64
2023/09/12 00:25:52;;;;;;;1999.90;999.90;;;;;;;18.89;100.00;94697.13;5007115;28;20275;-64
2023/09/12 00:28:18;;;;;;;1999.90;999.90;;;;;;;18.82;100.00;94701.03;5006953;28;20251;-65
2023/09/12 00:30:44;;;;;;;1999.90;999.90;;;;;;;18.79;100.00;94688.16;5006935;28;20200;-65
2023/09/12 00:33:09;;;;;;;1999.90;999.90;;;;;;;18.77;100.00;94687.09;5006871;28;20207;-65
2023/09/12 00:35:34;;;;;;;1999.90;999.90;;;;;;;18.73;100.00;94686.50;5023394;28;20254;-65
2023/09/12 00:38:00;;;;;;;1999.90;999.90;;;;;;;18.69;100.00;94674.88;5022972;28;20502;-64
2023/09/12 00:40:25;;;;;;;1999.90;999.90;;;;;;;18.65;100.00;94663.97;5006642;28;20235;-64
2023/09/12 00:42:51;;;;;;;1999.90;999.90;;;;;;;18.64;100.00;94658.91;5007113;28;20207;-65
2023/09/12 00:45:16;;;;;;;1999.90;999.90;;;;;;;18.64;100.00;94658.91;5006998;28;20207;-65
2023/09/12 00:47:42;;;;;;;1999.90;999.90;;;;;;;18.59;100.00;94659.56;5006906;28;20262;-66
2023/09/12 00:50:09;;;;;;;1999.90;999.90;;;;;;;18.53;100.00;94647.63;5006507;28;20203;-65
2023/09/12 00:52:36;;;;;;;1999.90;999.90;;;;;;;18.48;100.00;94639.97;5006519;28;20203;-66
2023/09/12 00:55:02;;;;;;;1999.90;999.90;;;;;;;18.42;100.00;94633.56;5006509;28;20278;-66
2023/09/12 00:57:29;;;;;;;1999.90;999.90;;;;;;;18.39;100.00;94623.47;5006112;28;20210;-65
2023/09/12 00:59:56;;;;;;;1999.90;999.90;;;;;;;18.36;100.00;94613.34;5006380;28;20196;-65
2023/09/12 01:02:22;;;;;;;1999.90;999.90;;;;;;;18.33;100.00;94608.72;5006808;28;20199;-65
2023/09/12 01:04:48;;;;;;;1999.90;999.90;;;;;;;18.32;100.00;94596.16;5006534;28;20231;-66
2023/09/12 01:07:14;;;;;;;1999.90;999.90;;;;;;;18.29;100.00;94600.59;5006213;28;20191;-65
2023/09/12 01:09:40;;;;;;;1999.90;999.90;;;;;;;18.25;100.00;94602.03;5006678;28;20195;-65
2023/09/12 01:12:06;;;;;;;1999.90;999.90;;;;;;;18.18;100.00;94596.88;5006560;28;20279;-65
2023/09/12 01:14:31;;;;;;;1999.90;999.90;;;;;;;18.13;100.00;94591.97;5006202;28;20278;-65
2023/09/12 01:16:58;;;;;;;1999.90;999.90;;;;;;;18.10;100.00;94582.63;5006081;28;20250;-65
2023/09/12 01:19:24;;;;;;;1999.90;999.90;;;;;;;18.07;100.00;94580.78;5005983;28;20247;-65
2023/09/12 01:22:03;;;;;;;1999.90;999.90;;;;;;;18.06;100.00;94561.94;5005883;28;20246;-65
2023/09/12 01:24:49;;;;;;;1999.90;999.90;;;;;;;18.01;100.00;94570.88;5006102;28;20210;-64
2023/09/12 01:27:27;;;;;;;1999.90;999.90;;;;;;;17.97;100.00;94564.75;5022344;28;20203;-65
2023/09/12 01:29:57;;;;;;;1999.90;999.90;;;;;;;17.95;100.00;94561.72;5006194;28;20247;-65
2023/09/12 01:32:23;;;;;;;1999.90;999.90;;;;;;;17.91;100.00;94558.34;5006235;28;20258;-64
2023/09/12 01:34:48;;;;;;;1999.90;999.90;;;;;;;17.88;100.00;94542.72;5006161;28;20199;-65
2023/09/12 01:37:14;;;;;;;1999.90;999.90;;;;;;;17.85;100.00;94529.84;5006004;28;20195;-64
2023/09/12 01:39:40;;;;;;;1999.90;999.90;;;;;;;17.86;100.00;94512.81;5005640;28;20219;-65
2023/09/12 01:42:07;;;;;;;1999.90;999.90;;;;;;;17.83;100.00;94510.22;5005983;28;20199;-64
2023/09/12 01:44:34;;;;;;;1999.90;999.90;;;;;;;17.81;100.00;94509.94;5006042;28;20202;-65
2023/09/12 01:47:03;;;;;;;1999.90;999.90;;;;;;;17.77;100.00;94506.59;5005557;28;20199;-64
2023/09/12 01:49:29;;;;;;;1999.90;999.90;;;;;;;17.78;100.00;94505.34;5005596;28;20273;-64
2023/09/12 01:51:56;;;;;;;1999.90;999.90;;;;;;;17.79;100.00;94504.09;5004553;28;20207;-65
2023/09/12 01:54:22;;;;;;;1999.90;999.90;;;;;;;17.76;100.00;94500.28;5005562;28;20223;-65
2023/09/12 01:56:48;;;;;;;1999.90;999.90;;;;;;;17.74;100.00;94502.00;5005706;28;20187;-64
2023/09/12 01:59:13;;;;;;;1999.90;999.90;;;;;;;17.73;100.00;94498.47;5005490;28;20259;-64
2023/09/12 02:01:38;;;;;;;1999.90;999.90;;;;;;;17.73;100.00;94500.44;5005692;28;20278;-65
2023/09/12 02:04:08;;;;;;;1999.90;999.90;;;;;;;17.72;100.00;94504.47;5005458;28;20200;-64
2023/09/12 02:06:34;;;;;;;1999.90;999.90;;;;;;;17.72;100.00;94509.97;5004990;28;20203;-64
2023/09/12 02:08:59;;;;;;;1999.90;999.90;;;;;;;17.71;100.00;94508.47;5005190;28;20216;-65
2023/09/12 02:11:26;;;;;;;1999.90;999.90;;;;;;;17.71;100.00;94511.22;5021415;28;20195;-65
2023/09/12 02:13:52;;;;;;;1999.90;999.90;;;;;;;17.67;100.00;94505.13;5004979;28;20204;-66
2023/09/12 02:16:17;;;;;;;1999.90;999.90;;;;;;;17.66;100.00;94512.63;5005490;28;20202;-66
2023/09/12 02:18:42;;;;;;;1999.90;999.90;;;;;;;17.66;100.00;94509.13;5005109;28;20204;-66
2023/09/12 02:21:08;;;;;;;1999.90;999.90;;;;;;;17.59;100.00;94509.47;5005400;28;20218;-66
2023/09/12 02:23:33;;;;;;;1999.90;999.90;;;;;;;17.56;100.00;94502.88;5005058;28;20200;-66
2023/09/12 02:25:58;;;;;;;1999.90;999.90;;;;;;;17.52;100.00;94499.53;5005381;28;20180;-66
2023/09/12 02:28:24;;;;;;;1999.90;999.90;;;;;;;17.48;100.00;94506.47;5004938;28;20348;-65
2023/09/12 02:30:50;;;;;;;1999.90;999.90;;;;;;;17.47;100.00;94510.44;5005079;28;20196;-66
2023/09/12 02:33:15;;;;;;;1999.90;999.90;;;;;;;17.46;100.00;94508.91;5005148;28;20223;-67
2023/09/12 02:35:40;;;;;;;1999.90;999.90;;;;;;;17.38;100.00;94511.25;5021458;28;20195;-65
2023/09/12 02:38:06;;;;;;;1999.90;999.90;;;;;;;17.36;100.00;94515.69;5004747;28;20226;-65
2023/09/12 02:40:31;;;;;;;1999.90;999.90;;;;;;;17.33;100.00;94511.13;5004546;28;20250;-66
2023/09/12 02:42:56;;;;;;;1999.90;999.90;;;;;;;17.31;100.00;94502.53;5004835;28;20246;-66
2023/09/12 02:45:22;;;;;;;1999.90;999.90;;;;;;;17.30;100.00;94501.00;5004664;28;20263;-66
2023/09/12 02:47:47;;;;;;;1999.90;999.90;;;;;;;17.26;100.00;94497.66;5004882;28;20231;-66
2023/09/12 02:50:12;;;;;;;1999.90;999.90;;;;;;;17.25;100.00;94498.88;5004775;28;20199;-66
2023/09/12 02:52:38;;;;;;;1999.90;999.90;;;;;;;17.22;100.00;94494.31;5004996;28;20200;-66
2023/09/12 02:55:03;;;;;;;1999.90;999.90;;;;;;;17.16;100.00;94482.38;5004827;28;20191;-65
2023/09/12 02:57:29;;;;;;;1999.90;999.90;;;;;;;17.13;100.00;94480.53;5004625;28;20214;-66
2023/09/12 02:59:54;;;;;;;1999.90;999.90;;;;;;;17.12;100.00;94470.75;5004359;28;20216;-66
2023/09/12 03:02:19;;;;;;;1999.90;999.90;;;;;;;17.08;100.00;94461.88;5004513;28;20196;-66
2023/09/12 03:04:45;;;;;;;1999.90;999.90;;;;;;;17.09;100.00;94457.88;5004557;28;20242;-66
2023/09/12 03:07:10;;;;;;;1999.90;999.90;;;;;;;17.09;100.00;94466.16;5004712;28;20187;-66
2023/09/12 03:09:37;;;;;;;1999.90;999.90;;;;;;;17.07;100.00;94454.81;5004042;28;20271;-64
2023/09/12 03:12:03;;;;;;;1999.90;999.90;;;;;;;17.05;100.00;94452.56;5020622;28;20191;-64
2023/09/12 03:14:29;;;;;;;1999.90;999.90;;;;;;;17.03;100.00;94454.22;5004105;28;20203;-64
2023/09/12 03:16:54;;;;;;;1999.90;999.90;;;;;;;17.02;100.00;94447.19;5004203;28;20196;-64
2023/09/12 03:19:19;;;;;;;1999.90;999.90;;;;;;;17.02;100.00;94449.94;5004309;28;20203;-64
2023/09/12 03:21:45;;;;;;;1999.90;999.90;;;;;;;17.00;100.00;94449.66;5004166;28;20219;-65
2023/09/12 03:24:10;;;;;;;1999.90;999.90;;;;;;;16.96;100.00;94444.31;5004560;28;20202;-64
2023/09/12 03:26:36;;;;;;;1999.90;999.90;;;;;;;16.94;100.00;94441.25;5004600;28;20188;-66
2023/09/12 03:29:03;;;;;;;1999.90;999.90;;;;;;;16.89;100.00;94433.59;5004384;28;20211;-65
2023/09/12 03:31:28;;;;;;;1999.90;999.90;;;;;;;16.85;100.00;94437.75;5004535;28;20495;-66
2023/09/12 03:33:54;;;;;;;1999.90;999.90;;;;;;;16.83;100.00;94429.19;5003839;28;20179;-64
2023/09/12 03:36:19;;;;;;;1999.90;999.90;;;;;;;16.79;100.00;94434.88;5004086;28;20199;-65
2023/09/12 03:38:45;;;;;;;1999.90;999.90;;;;;;;16.80;100.00;94416.34;5004250;28;20191;-64
2023/09/12 03:41:10;;;;;;;1999.90;999.90;;;;;;;16.82;100.00;94400.09;5004471;28;20200;-64
2023/09/12 03:43:36;;;;;;;1999.90;999.90;;;;;;;16.82;100.00;94397.34;5003864;28;20192;-65
2023/09/12 03:46:03;;;;;;;1999.90;999.90;;;;;;;16.82;100.00;94400.09;5003979;28;20195;-66
2023/09/12 03:48:30;;;;;;;1999.90;999.90;;;;;;;16.80;100.00;94397.81;5020729;28;20203;-66
2023/09/12 03:50:56;;;;;;;1999.90;999.90;;;;;;;16.77;100.00;94397.97;5004457;28;20224;-65
2023/09/12 03:53:21;;;;;;;1999.90;999.90;;;;;;;16.79;100.00;94409.31;5004357;28;20247;-66
2023/09/12 03:55:47;;;;;;;1999.90;999.90;;;;;;;16.75;100.00;94405.97;5004031;28;20191;-67
2023/09/12 03:58:12;;;;;;;1999.90;999.90;;;;;;;16.75;100.00;94412.22;5003480;28;20207;-66
2023/09/12 04:00:37;;;;;;;1999.90;999.90;;;;;;;16.76;100.00;94418.50;5003899;28;20177;-66
2023/09/12 04:03:03;;;;;;;1999.90;999.90;;;;;;;16.75;100.00;94411.47;5020504;28;20191;-66
2023/09/12 04:05:28;;;;;;;1999.90;999.90;;;;;;;16.75;100.00;94412.22;5003727;28;20254;-66
2023/09/12 04:07:54;;;;;;;1999.90;999.90;;;;;;;16.74;100.00;94418.19;5003458;28;20211;-66
2023/09/12 04:10:22;;;;;;;1999.90;999.90;;;;;;;16.70;100.00;94412.88;5003726;28;20198;-66
2023/09/12 04:12:48;;;;;;;1999.90;999.90;;;;;;;16.67;100.00;94421.31;5003706;28;20200;-66
2023/09/12 04:15:13;;;;;;;1999.90;999.90;;;;;;;16.65;100.00;94412.72;5004964;28;20199;-65
2023/09/12 04:17:38;;;;;;;1999.90;999.90;;;;;;;16.65;100.00;94418.25;5007142;28;20196;-66
2023/09/12 04:20:04;;;;;;;1999.90;999.90;;;;;;;16.62;100.00;94425.47;5007067;28;20187;-66
2023/09/12 04:22:30;;;;;;;1999.90;999.90;;;;;;;16.59;100.00;94431.91;5006900;28;20256;-65
2023/09/12 04:24:55;;;;;;;1999.90;999.90;;;;;;;16.57;100.00;94426.06;5007334;28;20250;-66
2023/09/12 04:27:20;;;;;;;1999.90;999.90;;;;;;;16.55;100.00;94436.03;5007264;28;20234;-61
2023/09/12 04:29:46;;;;;;;1999.90;999.90;;;;;;;16.55;100.00;94416.75;5006893;28;20196;-63
2023/09/12 04:32:12;;;;;;;1999.90;999.90;;;;;;;16.53;100.00;94428.25;5006680;28;20192;-63
2023/09/12 04:34:37;;;;;;;1999.90;999.90;;;;;;;16.50;100.00;94436.69;5006615;28;20222;-64
2023/09/12 04:37:02;;;;;;;1999.90;999.90;;;;;;;16.50;100.00;94440.19;5007069;28;20223;-58
2023/09/12 04:39:28;;;;;;;1999.90;999.90;;;;;;;16.51;100.00;94429.94;5006888;28;20187;-60
2023/09/12 04:41:54;;;;;;;1999.90;999.90;;;;;;;16.51;100.00;94422.44;5006626;28;20235;-59
2023/09/12 04:44:19;;;;;;;1999.90;999.90;;;;;;;16.52;100.00;94420.44;5006663;28;20226;-59
2023/09/12 04:46:44;;;;;;;1999.90;999.90;;;;;;;16.50;100.00;94411.88;5022845;28;20198;-60
2023/09/12 04:49:10;;;;;;;1999.90;999.90;;;;;;;16.52;100.00;94426.72;5023684;28;20282;-60
2023/09/12 04:51:35;;;;;;;1999.90;999.90;;;;;;;16.51;100.00;94429.94;5006298;28;20191;-63
2023/09/12 04:54:00;;;;;;;1999.90;999.90;;;;;;;16.49;100.00;94441.41;5006738;28;20187;-63
2023/09/12 04:56:26;;;;;;;1999.90;999.90;;;;;;;16.49;100.00;94444.19;5006460;28;20191;-63
2023/09/12 04:58:51;;;;;;;1999.90;999.90;;;;;;;16.51;100.00;94449.22;5006365;28;20270;-63
2023/09/12 05:01:17;;;;;;;1999.90;999.90;;;;;;;16.61;100.00;94448.72;5006352;28;20176;-60
2023/09/12 05:03:43;;;;;;;1999.90;999.90;;;;;;;16.76;100.00;94465.38;5006914;28;20192;-60
2023/09/12 05:06:10;;;;;;;1999.90;999.90;;;;;;;16.89;100.00;94488.78;5006544;28;20263;-60
2023/09/12 05:08:36;;;;;;;1999.90;999.90;;;;;;;17.04;100.00;94505.44;5006533;28;20208;-61
2023/09/12 05:11:02;;;;;;;1999.90;999.90;;;;;;;17.22;100.00;94538.47;5006119;28;20258;-62
2023/09/12 05:13:27;;;;;;;1999.90;999.90;;;;;;;17.44;100.00;94585.94;5006644;28;20196;-61
2023/09/12 05:15:53;;;;;;;1999.90;999.90;;;;;;;17.62;100.00;94635.53;5005960;28;20271;-64
2023/09/12 05:18:18;;;;;;;1999.90;999.90;;;;;;;17.98;100.00;94691.41;5006332;28;20310;-64
2023/09/12 05:20:43;;;;;;;1999.90;999.90;;;;;;;18.41;100.00;94753.72;5022375;28;20271;-66
2023/09/12 05:23:09;;;;;;;1999.90;999.90;;;;;;;18.83;100.00;94824.31;5005813;28;20239;-65
2023/09/12 05:25:34;;;;;;;1999.90;999.90;;;;;;;19.30;100.00;94881.72;5005915;28;20200;-66
2023/09/12 05:27:59;;;;;;;1999.90;999.90;;;;;;;19.72;100.00;94953.63;5005930;28;20208;-62
2023/09/12 05:30:25;;;;;;;1999.90;999.90;;;;;;;20.02;100.00;94986.50;5005542;28;20196;-66
2023/09/12 05:32:50;;;;;;;1999.90;999.90;;;;;;;20.30;100.00;95012.03;5005971;28;20180;-64
2023/09/12 05:35:16;;;;;;;1999.90;999.90;;;;;;;20.68;100.00;95029.41;5005879;28;20278;-65
2023/09/12 05:37:41;;;;;;;1999.90;999.90;;;;;;;21.12;100.00;95049.63;5005922;28;20223;-66
2023/09/12 05:40:07;;;;;;;1999.90;999.90;;;;;;;21.30;100.00;95062.56;5005839;28;20202;-66
2023/09/12 05:42:32;;;;;;;1999.90;999.90;;;;;;;21.37;100.00;95062.94;5005533;28;20203;-64
2023/09/12 05:44:57;;;;;;;1999.90;999.90;;;;;;;21.33;100.00;95067.94;5005416;28;20254;-64
2023/09/12 05:47:23;;;;;;;1999.90;999.90;;;;;;;21.79;100.00;95070.94;5005489;28;20230;-65
2023/09/12 05:49:48;;;;;;;1999.90;999.90;;;;;;;22.22;100.00;95081.91;5005223;28;20218;-64
2023/09/12 05:52:14;;;;;;;1999.90;999.90;;;;;;;22.63;100.00;95087.50;5005406;28;20192;-65
2023/09/12 05:54:40;;;;;;;1999.90;999.90;;;;;;;22.73;100.00;95092.44;5005343;28;20219;-66
2023/09/12 05:57:06;;;;;;;1999.90;999.90;;;;;;;22.88;100.00;95098.69;5005239;28;20192;-64
2023/09/12 05:59:32;;;;;;;1999.90;999.90;;;;;;;23.35;100.00;95095.38;5005663;28;20223;-63
2023/09/12 06:01:57;;;;;;;1999.90;999.90;;;;;;;23.78;100.00;95099.78;5005029;28;20190;-64
2023/09/12 06:04:22;;;;;;;1999.90;999.90;;;;;;;24.36;100.00;95107.53;5005165;28;20211;-65
2023/09/12 06:06:48;;;;;;;1999.90;999.90;;;;;;;24.83;100.00;95097.59;5005745;28;20199;-65
2023/09/12 06:09:13;;;;;;;1999.90;999.90;;;;;;;25.49;100.00;95100.56;5005113;28;20208;-63
2023/09/12 06:11:38;;;;;;;1999.90;999.90;;;;;;;25.93;100.00;95103.34;5004906;28;20203;-64
2023/09/12 06:14:04;;;;;;;1999.90;999.90;;;;;;;26.30;100.00;95112.25;5004897;28;20196;-62
2023/09/12 06:16:29;;;;;;;1999.90;999.90;;;;;;;26.59;100.00;95105.28;5021288;28;20254;-63
2023/09/12 06:18:55;;;;;;;1999.90;999.90;;;;;;;26.80;100.00;95104.44;5004858;28;20195;-64
2023/09/12 06:21:21;;;;;;;1999.90;999.90;;;;;;;27.06;100.00;95110.44;5004892;28;20191;-64
2023/09/12 06:24:11;;;;;;;1999.90;999.90;;;;;;;27.53;100.00;95108.41;5004764;28;20188;-64
2023/09/12 06:26:37;;;;;;;1999.90;999.90;;;;;;;27.99;100.00;95103.47;5005207;28;20204;-64
2023/09/12 06:29:02;;;;;;;1999.90;999.90;;;;;;;27.84;100.00;95108.72;5004418;28;20233;-64
2023/09/12 06:31:28;;;;;;;1999.90;999.90;;;;;;;29.14;100.00;95117.59;5005249;28;20207;-64
2023/09/12 06:33:53;;;;;;;1999.90;999.90;;;;;;;29.54;100.00;95104.47;5005015;28;20234;-64
2023/09/12 06:36:19;;;;;;;1999.90;999.90;;;;;;;29.90;100.00;95102.91;5004910;28;20196;-64
2023/09/12 06:38:44;;;;;;;1999.90;999.90;;;;;;;30.37;100.00;95112.38;5004025;28;20207;-64
2023/09/12 06:41:09;;;;;;;1999.90;999.90;;;;;;;30.20;100.00;95120.38;5004450;28;20199;-64
2023/09/12 06:43:35;;;;;;;1999.90;999.90;;;;;;;30.66;100.00;95112.06;5004358;28;20199;-64
2023/09/12 06:46:00;;;;;;;1999.90;999.90;;;;;;;30.67;100.00;95107.19;5021226;28;20235;-64
2023/09/12 06:48:26;;;;;;;1999.90;999.90;;;;;;;30.25;100.00;95113.84;5004383;28;20215;-64
2023/09/12 06:50:53;;;;;;;1999.90;999.90;;;;;;;30.20;100.00;95114.72;5004440;28;20234;-65
2023/09/12 06:53:19;;;;;;;1999.90;999.90;;;;;;;30.37;100.00;95112.38;5004431;28;20206;-63
2023/09/12 06:55:44;;;;;;;1999.90;999.90;;;;;;;30.36;100.00;95122.13;5004423;28;20195;-64
2023/09/12 06:58:10;;;;;;;1999.90;999.90;;;;;;;30.89;100.00;95120.88;5004609;28;20200;-65
2023/09/12 07:00:35;;;;;;;1999.90;999.90;;;;;;;31.15;100.00;95118.03;5004976;28;20183;-64
2023/09/12 07:03:00;;;;;;;1999.90;999.90;;;;;;;31.48;100.00;95120.16;5004656;28;20203;-64
2023/09/12 07:05:26;;;;;;;1999.90;999.90;;;;;;;32.06;100.00;95112.13;5004668;28;20274;-63
2023/09/12 07:07:52;;;;;;;1999.90;999.90;;;;;;;32.13;100.00;95119.94;5004025;28;20196;-64
2023/09/12 07:10:17;;;;;;;1999.90;999.90;;;;;;;32.89;100.00;95126.97;5004086;28;20192;-64
2023/09/12 07:12:43;;;;;;;1999.90;999.90;;;;;;;32.89;100.00;95126.97;5004285;28;20206;-64
2023/09/12 07:15:09;;;;;;;1999.90;999.90;;;;;;;33.15;93.56;95127.50;5004260;28;20200;-64
2023/09/12 07:17:37;;;;;;;1999.90;999.90;;;;;;;32.69;98.94;95124.91;5004212;28;20195;-64
2023/09/12 07:20:04;;;;;;;1999.90;999.90;;;;;;;32.77;98.88;95125.75;5004187;28;20267;-64
2023/09/12 07:22:29;;;;;;;1999.90;999.90;;;;;;;33.21;94.25;95125.25;5004162;28;20195;-64
2023/09/12 07:24:55;;;;;;;1999.90;999.90;;;;;;;33.66;90.08;95136.81;5004039;28;20230;-64
2023/09/12 07:27:20;;;;;;;1999.90;999.90;;;;;;;33.85;85.95;95139.34;5004874;28;20196;-64
2023/09/12 07:29:45;;;;;;;1999.90;999.90;;;;;;;33.38;89.70;95134.06;5004406;28;20204;-65
2023/09/12 07:32:11;;;;;;;1999.90;999.90;;;;;;;33.51;88.23;95124.66;5004474;28;20162;-64
2023/09/12 07:34:37;;;;;;;1999.90;999.90;;;;;;;33.96;86.27;95129.72;5004540;28;20192;-65
2023/09/12 07:37:03;;;;;;;1999.90;999.90;;;;;;;34.15;86.52;95135.81;5004259;28;20202;-65
2023/09/12 07:39:28;;;;;;;1999.90;999.90;;;;;;;34.21;83.33;95139.22;5004228;28;20219;-65
2023/09/12 07:41:54;;;;;;;1999.90;999.90;;;;;;;34.46;83.81;95137.38;5004062;28;20299;-65
2023/09/12 07:44:20;;;;;;;1999.90;999.90;;;;;;;35.02;78.94;95132.03;5003947;28;20191;-65
2023/09/12 07:46:46;;;;;;;1999.90;999.90;;;;;;;35.76;73.90;95132.38;5003847;28;20192;-65
2023/09/12 07:49:11;;;;;;;1999.90;999.90;;;;;;;36.27;70.72;95141.22;5003878;28;20214;-64
2023/09/12 07:51:36;;;;;;;1999.90;999.90;;;;;;;36.83;68.27;95133.94;5007582;28;20192;-65
2023/09/12 07:54:02;;;;;;;1999.90;999.90;;;;;;;36.93;68.17;95141.28;5007849;28;20198;-65
2023/09/12 07:56:27;;;;;;;1999.90;999.90;;;;;;;37.88;61.52;95136.41;5007833;28;20195;-63
2023/09/12 07:58:53;;;;;;;1999.90;999.90;;;;;;;37.38;62.99;95140.81;5007342;28;20204;-63
2023/09/12 08:01:18;;;;;;;1999.90;999.90;;;;;;;37.47;62.82;95145.09;5007282;28;20207;-63
2023/09/12 08:03:44;;;;;;;1999.90;999.90;;;;;;;37.80;61.54;95141.44;5007989;28;20168;-64
2023/09/12 08:06:09;;;;;;;1999.90;999.90;;;;;;;37.16;64.96;95146.75;5007686;28;20188;-63
2023/09/12 08:08:35;;;;;;;1999.90;999.90;;;;;;;37.55;63.31;95149.38;5007641;28;20219;-63
2023/09/12 08:11:01;;;;;;;1999.90;999.90;;;;;;;37.16;63.30;95147.50;5007324;28;20203;-64
2023/09/12 08:13:28;;;;;;;1999.90;999.90;;;;;;;37.14;63.19;95147.31;5007519;28;20246;-65
2023/09/12 08:15:54;;;;;;;1999.90;999.90;;;;;;;36.75;64.89;95147.50;5007576;28;20196;-66
2023/09/12 08:18:19;;;;;;;1999.90;999.90;;;;;;;37.18;64.59;95144.09;5007158;28;20200;-65
2023/09/12 08:20:45;;;;;;;1999.90;999.90;;;;;;;37.27;64.75;95135.63;5007155;28;20204;-69
2023/09/12 08:23:10;;;;;;;1999.90;999.90;;;;;;;37.00;64.02;95131.91;5007179;28;20195;-70
2023/09/12 08:25:36;;;;;;;1999.90;999.90;;;;;;;38.11;59.49;95136.88;5007113;28;20188;-70
2023/09/12 08:28:01;;;;;;;1999.90;999.90;;;;;;;37.38;61.72;95135.09;5006857;28;20211;-71
2023/09/12 08:30:29;;;;;;;1999.90;999.90;;;;;;;37.40;62.84;95134.53;5023244;28;20314;-73
2023/09/12 08:32:55;;;;;;;1999.90;999.90;;;;;;;37.95;61.35;95140.50;5006644;28;20168;-71
2023/09/12 08:35:21;;;;;;;1999.90;999.90;;;;;;;37.70;62.00;95132.09;5007776;28;20270;-71
2023/09/12 08:37:46;;;;;;;1999.90;999.90;;;;;;;36.91;63.52;95143.94;5007205;28;20211;-69
2023/09/12 08:40:12;;;;;;;1999.90;999.90;;;;;;;37.46;62.86;95135.78;5007067;28;20219;-61
2023/09/12 08:42:44;;;;;;;1999.90;999.90;;;;;;;37.04;63.99;95137.94;5007031;28;20196;-62
2023/09/12 08:45:14;;;;;;;1999.90;999.90;;;;;;;37.40;63.83;95131.69;5006781;28;20279;-60
2023/09/12 08:47:45;;;;;;;1999.90;999.90;;;;;;;37.77;62.91;95136.19;5006401;28;20271;-59
2023/09/12 08:50:13;;;;;;;1999.90;999.90;;;;;;;38.41;57.92;95142.13;5006689;28;20195;-59
2023/09/12 08:52:39;;;;;;;1999.90;999.90;;;;;;;38.97;55.66;95135.16;5006659;28;20215;-60
2023/09/12 08:55:05;;;;;;;1999.90;999.90;;;;;;;38.75;55.58;95141.97;5006921;28;20192;-58
2023/09/12 08:57:33;;;;;;;1999.90;999.90;;;;;;;37.58;58.84;95131.06;5006429;28;20237;-58
2023/09/12 09:00:04;;;;;;;1999.90;999.90;;;;;;;37.93;62.12;95126.84;5006881;28;20172;-58
2023/09/12 09:02:38;;;;;;;1999.90;999.90;;;;;;;37.71;61.95;95133.59;5006354;28;20263;-58
2023/09/12 09:05:05;;;;;;;1999.90;999.90;;;;;;;36.82;65.37;95123.91;5006231;28;20266;-58
2023/09/12 09:07:34;;;;;;;1999.90;999.90;;;;;;;37.53;63.36;95129.22;5006050;28;20240;-59
2023/09/12 09:10:04;;;;;;;1999.90;999.90;;;;;;;37.03;63.25;95127.84;5005928;28;20207;-58
2023/09/12 09:12:29;;;;;;;1999.90;999.90;;;;;;;36.38;65.29;95124.41;5006604;28;20195;-57
2023/09/12 09:14:54;;;;;;;1999.90;999.90;;;;;;;37.21;64.89;95120.13;5006163;28;20195;-58
2023/09/12 09:17:20;;;;;;;1999.90;999.90;;;;;;;38.02;61.53;95123.25;5006624;28;20206;-57
2023/09/12 09:19:45;;;;;;;1999.90;999.90;;;;;;;38.38;58.75;95120.47;5005995;28;20195;-57
2023/09/12 09:22:11;;;;;;;1999.90;999.90;;;;;;;37.35;60.56;95121.28;5022332;28;20192;-57
2023/09/12 09:24:36;;;;;;;1999.90;999.90;;;;;;;37.05;62.54;95113.78;5006058;28;20222;-60
2023/09/12 09:27:03;;;;;;;1999.90;999.90;;;;;;;37.14;63.84;95107.41;5006338;28;20222;-60
2023/09/12 09:29:31;;;;;;;1999.90;999.90;;;;;;;37.18;62.60;95115.59;5006346;28;20319;-58
2023/09/12 09:31:59;;;;;;;1999.90;999.90;;;;;;;37.47;61.86;95120.16;5005660;28;20202;-58
2023/09/12 09:34:24;;;;;;;1999.90;999.90;;;;;;;37.33;58.92;95110.47;5005699;28;20187;-58
2023/09/12 09:36:51;;;;;;;1999.90;999.90;;;;;;;36.38;62.84;95121.56;5006117;28;20202;-57
2023/09/12 09:39:31;;;;;;;1999.90;999.90;;;;;;;36.11;66.86;95111.31;5006025;28;20219;-57
2023/09/12 09:41:57;;;;;;;1999.90;999.90;;;;;;;36.10;67.05;95106.97;5005624;28;20262;-57
2023/09/12 09:44:30;;;;;;;1999.90;999.90;;;;;;;36.01;67.23;95104.75;5005665;28;20192;-57
2023/09/12 09:47:00;;;;;;;1999.90;999.90;;;;;;;35.91;71.07;95095.34;5005486;28;20184;-58
2023/09/12 09:49:25;;;;;;;1999.90;999.90;;;;;;;36.68;67.77;95097.78;5005779;28;20192;-58
2023/09/12 09:51:54;;;;;;;1999.90;999.90;;;;;;;37.09;64.59;95107.66;5004997;28;20202;-58
2023/09/12 09:54:24;;;;;;;1999.90;999.90;;;;;;;36.75;66.31;95096.25;5005454;28;20196;-58
2023/09/12 09:56:53;;;;;;;1999.90;999.90;;;;;;;36.29;68.26;95107.22;5005198;28;20232;-58
2023/09/12 09:59:21;;;;;;;1999.90;999.90;;;;;;;35.87;64.36;95100.69;5005318;28;20226;-58
2023/09/12 10:01:49;;;;;;;1999.90;999.90;;;;;;;35.68;67.16;95094.66;5005128;28;20192;-59
2023/09/12 10:04:15;;;;;;;1999.90;999.90;;;;;;;35.93;66.24;95095.50;5004922;28;20258;-58
2023/09/12 10:06:46;;;;;;;1999.90;999.90;;;;;;;35.52;68.40;95087.56;5004963;28;20195;-58
2023/09/12 10:09:16;;;;;;;1999.90;999.90;;;;;;;34.92;71.47;95084.94;5005221;28;20208;-58
2023/09/12 10:11:43;;;;;;;1999.90;999.90;;;;;;;35.07;69.31;95096.25;5004873;28;20199;-58
2023/09/12 10:14:11;;;;;;;1999.90;999.90;;;;;;;34.46;69.04;95094.78;5004017;28;20176;-58
2023/09/12 10:16:46;;;;;;;1999.90;999.90;;;;;;;33.91;67.78;95093.78;5005026;28;20275;-58
2023/09/12 10:19:23;;;;;;;1999.90;999.90;;;;;;;33.97;70.05;95091.53;5005213;28;20199;-59
2023/09/12 10:22:26;;;;;;;1999.90;999.90;;;;;;;34.08;71.11;95091.19;5005041;28;20202;-60
2023/09/12 10:24:53;;;;;;;1999.90;999.90;;;;;;;34.77;67.09;95090.59;4975094;28;20211;-57
2023/09/12 10:27:20;;;;;;;1999.90;999.90;;;;;;;35.06;65.92;95086.94;5004768;28;20192;-57
2023/09/12 10:29:47;;;;;;;1999.90;999.90;;;;;;;34.98;63.68;95083.38;5004754;28;20207;-58
2023/09/12 10:32:14;;;;;;;1999.90;999.90;;;;;;;35.00;63.37;95089.25;5004671;28;20203;-58
2023/09/12 10:34:44;;;;;;;1999.90;999.90;;;;;;;34.39;66.58;95078.53;5004587;28;20313;-58
2023/09/12 10:37:13;;;;;;;1999.90;999.90;;;;;;;33.88;71.61;95077.91;5005402;28;20192;-59
2023/09/12 10:39:40;;;;;;;1999.90;999.90;;;;;;;33.85;68.10;95074.13;5004836;28;20270;-58
2023/09/12 10:42:06;;;;;;;1999.90;999.90;;;;;;;34.01;69.21;95078.47;5004689;28;20195;-59
2023/09/12 10:44:33;;;;;;;1999.90;999.90;;;;;;;34.44;68.48;95074.75;5004883;28;20195;-58
2023/09/12 10:47:00;;;;;;;1999.90;999.90;;;;;;;34.32;67.16;95076.41;5004491;28;20214;-58